Private Wetterstation Sandau
Wetterdaten: Dienstag, 28.08.2012
Datum Zeit Temp. A. Feuchte A. Luftdruck Regen Wind Richtung Richtung Taupunkt Windchill
28.08.2012 00:01 12,8 C 73 % 1020,6 hPa 0,0 l/m 0,0 km/h (0 Bft) O-SO 112 8,1 C 12,8 C
28.08.2012 00:06 12,8 C 74 % 1020,6 hPa 0,0 l/m 2,2 km/h (1 Bft) O-SO 112 8,3 C 12,8 C
28.08.2012 00:11 12,7 C 74 % 1020,4 hPa 0,0 l/m 0,0 km/h (0 Bft) O-SO 112 8,2 C 12,7 C
28.08.2012 00:16 12,7 C 75 % 1020,4 hPa 0,0 l/m 3,2 km/h (1 Bft) SO 135 8,4 C 12,7 C
28.08.2012 00:21 12,5 C 75 % 1020,4 hPa 0,0 l/m 0,0 km/h (0 Bft) O-SO 112 8,2 C 12,5 C
28.08.2012 00:26 12,4 C 76 % 1020,4 hPa 0,0 l/m 0,0 km/h (0 Bft) O-SO 112 8,3 C 12,4 C
28.08.2012 00:31 12,3 C 76 % 1020,6 hPa 0,0 l/m 0,0 km/h (0 Bft) SO 135 8,2 C 12,3 C
28.08.2012 00:36 12,2 C 76 % 1020,6 hPa 0,0 l/m 0,0 km/h (0 Bft) SO 135 8,1 C 12,2 C
28.08.2012 00:41 12,1 C 76 % 1020,6 hPa 0,0 l/m 0,0 km/h (0 Bft) SO 135 8,0 C 12,1 C
28.08.2012 00:46 12,1 C 77 % 1020,6 hPa 0,0 l/m 0,0 km/h (0 Bft) SO 135 8,2 C 12,1 C
28.08.2012 00:51 12,1 C 77 % 1020,6 hPa 0,0 l/m 1,4 km/h (1 Bft) SO 135 8,2 C 12,1 C
28.08.2012 00:56 11,9 C 77 % 1020,7 hPa 0,0 l/m 0,0 km/h (0 Bft) SO 135 8,0 C 11,9 C
28.08.2012 01:01 11,9 C 77 % 1020,4 hPa 0,0 l/m 1,4 km/h (1 Bft) O-SO 112 8,0 C 11,9 C
28.08.2012 01:06 11,9 C 78 % 1020,4 hPa 0,0 l/m 2,5 km/h (1 Bft) O-SO 112 8,2 C 11,9 C
28.08.2012 01:11 11,8 C 78 % 1020,3 hPa 0,0 l/m 0,0 km/h (0 Bft) O-SO 112 8,1 C 11,8 C
28.08.2012 01:16 11,8 C 78 % 1020,3 hPa 0,0 l/m 0,0 km/h (0 Bft) O-SO 112 8,1 C 11,8 C
28.08.2012 01:21 11,8 C 78 % 1020,3 hPa 0,0 l/m 1,8 km/h (1 Bft) SO 135 8,1 C 11,8 C
28.08.2012 01:26 11,8 C 78 % 1020,3 hPa 0,0 l/m 0,0 km/h (0 Bft) O-SO 112 8,1 C 11,8 C
28.08.2012 01:31 11,7 C 79 % 1020,2 hPa 0,0 l/m 0,0 km/h (0 Bft) O-SO 112 8,2 C 11,7 C
28.08.2012 01:36 11,6 C 79 % 1020,2 hPa 0,0 l/m 0,0 km/h (0 Bft) O-SO 112 8,1 C 11,6 C
28.08.2012 01:41 11,6 C 79 % 1020,1 hPa 0,0 l/m 1,8 km/h (1 Bft) SO 135 8,1 C 11,6 C
28.08.2012 01:46 11,5 C 79 % 1020,2 hPa 0,0 l/m 2,2 km/h (1 Bft) SO 135 8,0 C 11,5 C
28.08.2012 01:51 11,5 C 80 % 1020,1 hPa 0,0 l/m 1,4 km/h (1 Bft) S-SO 157 8,2 C 11,5 C
28.08.2012 01:56 11,5 C 80 % 1020,1 hPa 0,0 l/m 0,0 km/h (0 Bft) SO 135 8,2 C 11,5 C
28.08.2012 02:01 11,5 C 80 % 1020,0 hPa 0,0 l/m 0,0 km/h (0 Bft) SO 135 8,2 C 11,5 C
28.08.2012 02:06 11,4 C 80 % 1019,9 hPa 0,0 l/m 0,0 km/h (0 Bft) O-SO 112 8,1 C 11,4 C
28.08.2012 02:11 11,4 C 80 % 1019,8 hPa 0,0 l/m 0,0 km/h (0 Bft) O-SO 112 8,1 C 11,4 C
28.08.2012 02:16 11,4 C 80 % 1019,7 hPa 0,0 l/m 2,2 km/h (1 Bft) SO 135 8,1 C 11,4 C
28.08.2012 02:21 11,3 C 80 % 1019,8 hPa 0,0 l/m 4,0 km/h (1 Bft) O-SO 112 8,0 C 11,3 C
28.08.2012 02:26 11,3 C 80 % 1019,7 hPa 0,0 l/m 0,0 km/h (0 Bft) O-SO 112 8,0 C 11,3 C
28.08.2012 02:31 11,2 C 80 % 1019,7 hPa 0,0 l/m 1,8 km/h (1 Bft) O-SO 112 7,9 C 11,2 C
28.08.2012 02:36 11,1 C 80 % 1019,6 hPa 0,0 l/m 1,8 km/h (1 Bft) O-SO 112 7,8 C 11,1 C
28.08.2012 02:41 11,1 C 80 % 1019,6 hPa 0,0 l/m 1,8 km/h (1 Bft) O-SO 112 7,8 C 11,1 C
28.08.2012 02:46 11,0 C 80 % 1019,6 hPa 0,0 l/m 0,0 km/h (0 Bft) O-SO 112 7,7 C 11,0 C
28.08.2012 02:51 10,9 C 81 % 1019,6 hPa 0,0 l/m 0,0 km/h (0 Bft) O-SO 112 7,8 C 10,9 C
28.08.2012 02:56 10,9 C 81 % 1019,5 hPa 0,0 l/m 0,0 km/h (0 Bft) O-SO 112 7,8 C 10,9 C
28.08.2012 03:01 10,9 C 81 % 1019,5 hPa 0,0 l/m 0,0 km/h (0 Bft) O-SO 112 7,8 C 10,9 C
28.08.2012 03:06 10,9 C 81 % 1019,5 hPa 0,0 l/m 0,0 km/h (0 Bft) O-SO 112 7,8 C 10,9 C
28.08.2012 03:11 10,9 C 81 % 1019,5 hPa 0,0 l/m 0,0 km/h (0 Bft) O-SO 112 7,8 C 10,9 C
28.08.2012 03:16 10,9 C 81 % 1019,6 hPa 0,0 l/m 3,6 km/h (1 Bft) O-SO 112 7,8 C 10,9 C
28.08.2012 03:21 10,9 C 81 % 1019,5 hPa 0,0 l/m 3,2 km/h (1 Bft) O-SO 112 7,8 C 10,9 C
28.08.2012 03:26 10,9 C 81 % 1019,5 hPa 0,0 l/m 0,0 km/h (0 Bft) SO 135 7,8 C 10,9 C
28.08.2012 03:31 10,9 C 81 % 1019,3 hPa 0,0 l/m 4,0 km/h (1 Bft) O-SO 112 7,8 C 10,9 C
28.08.2012 03:36 10,9 C 81 % 1019,3 hPa 0,0 l/m 2,9 km/h (1 Bft) O-SO 112 7,8 C 10,9 C
28.08.2012 03:41 10,8 C 81 % 1019,2 hPa 0,0 l/m 2,5 km/h (1 Bft) O-SO 112 7,7 C 10,8 C
28.08.2012 03:46 10,8 C 81 % 1019,2 hPa 0,0 l/m 3,6 km/h (1 Bft) O-SO 112 7,7 C 10,8 C
28.08.2012 03:51 10,8 C 81 % 1019,3 hPa 0,0 l/m 0,0 km/h (0 Bft) O-SO 112 7,7 C 10,8 C
28.08.2012 03:56 10,7 C 82 % 1019,2 hPa 0,0 l/m 3,2 km/h (1 Bft) O-SO 112 7,8 C 10,7 C
28.08.2012 04:01 10,7 C 82 % 1019,2 hPa 0,0 l/m 3,2 km/h (1 Bft) O 90 7,8 C 10,7 C
28.08.2012 04:06 10,6 C 82 % 1019,3 hPa 0,0 l/m 4,3 km/h (1 Bft) O-SO 112 7,7 C 10,6 C
28.08.2012 04:11 10,6 C 82 % 1019,2 hPa 0,0 l/m 2,5 km/h (1 Bft) O-SO 112 7,7 C 10,6 C
28.08.2012 04:16 10,6 C 82 % 1019,2 hPa 0,0 l/m 3,2 km/h (1 Bft) O-SO 112 7,7 C 10,6 C
28.08.2012 04:21 10,5 C 82 % 1019,2 hPa 0,0 l/m 3,6 km/h (1 Bft) SO 135 7,6 C 10,5 C
28.08.2012 04:26 10,5 C 82 % 1019,2 hPa 0,0 l/m 0,0 km/h (0 Bft) O-SO 112 7,6 C 10,5 C
28.08.2012 04:31 10,5 C 82 % 1019,2 hPa 0,0 l/m 4,0 km/h (1 Bft) O-SO 112 7,6 C 10,5 C
28.08.2012 04:36 10,4 C 82 % 1019,2 hPa 0,0 l/m 5,4 km/h (1 Bft) O-SO 112 7,5 C 10,4 C
28.08.2012 04:41 10,4 C 82 % 1018,9 hPa 0,0 l/m 3,2 km/h (1 Bft) SO 135 7,5 C 10,4 C
28.08.2012 04:46 10,4 C 82 % 1019,0 hPa 0,0 l/m 4,0 km/h (1 Bft) SO 135 7,5 C 10,4 C
28.08.2012 04:51 10,4 C 82 % 1018,9 hPa 0,0 l/m 3,6 km/h (1 Bft) O-SO 112 7,5 C 10,4 C
28.08.2012 04:56 10,4 C 82 % 1018,9 hPa 0,0 l/m 2,9 km/h (1 Bft) O-SO 112 7,5 C 10,4 C
28.08.2012 05:01 10,4 C 82 % 1018,8 hPa 0,0 l/m 3,2 km/h (1 Bft) O-SO 112 7,5 C 10,4 C
28.08.2012 05:06 10,4 C 82 % 1018,7 hPa 0,0 l/m 4,0 km/h (1 Bft) SO 135 7,5 C 10,4 C
28.08.2012 05:11 10,4 C 82 % 1018,8 hPa 0,0 l/m 6,5 km/h (2 Bft) O-SO 112 7,5 C 10,4 C
28.08.2012 05:16 10,4 C 82 % 1018,7 hPa 0,0 l/m 2,2 km/h (1 Bft) SO 135 7,5 C 10,4 C
28.08.2012 05:21 10,4 C 82 % 1018,8 hPa 0,0 l/m 3,6 km/h (1 Bft) O-SO 112 7,5 C 10,4 C
28.08.2012 05:26 10,4 C 82 % 1018,9 hPa 0,0 l/m 5,4 km/h (1 Bft) O-SO 112 7,5 C 10,4 C
28.08.2012 05:31 10,4 C 82 % 1018,7 hPa 0,0 l/m 5,0 km/h (1 Bft) O-SO 112 7,5 C 10,4 C
28.08.2012 05:36 10,4 C 82 % 1018,9 hPa 0,0 l/m 3,2 km/h (1 Bft) O-SO 112 7,5 C 10,4 C
28.08.2012 05:41 10,4 C 82 % 1018,8 hPa 0,0 l/m 2,2 km/h (1 Bft) O-SO 112 7,5 C 10,4 C
28.08.2012 05:46 10,4 C 82 % 1018,7 hPa 0,0 l/m 5,8 km/h (2 Bft) SO 135 7,5 C 10,4 C
28.08.2012 05:51 10,4 C 82 % 1018,7 hPa 0,0 l/m 2,5 km/h (1 Bft) O-NO 67 7,5 C 10,4 C
28.08.2012 05:56 10,4 C 82 % 1018,6 hPa 0,0 l/m 2,5 km/h (1 Bft) O-NO 67 7,5 C 10,4 C
28.08.2012 06:01 10,4 C 82 % 1018,6 hPa 0,0 l/m 5,4 km/h (1 Bft) O-SO 112 7,5 C 10,4 C
28.08.2012 06:06 10,4 C 82 % 1018,4 hPa 0,0 l/m 2,5 km/h (1 Bft) SO 135 7,5 C 10,4 C
28.08.2012 06:11 10,4 C 82 % 1018,5 hPa 0,0 l/m 4,0 km/h (1 Bft) O-SO 112 7,5 C 10,4 C
28.08.2012 06:16 10,4 C 82 % 1018,3 hPa 0,0 l/m 4,7 km/h (1 Bft) O-SO 112 7,5 C 10,4 C
28.08.2012 06:21 10,4 C 82 % 1018,2 hPa 0,0 l/m 4,3 km/h (1 Bft) SO 135 7,5 C 10,4 C
28.08.2012 06:26 10,4 C 82 % 1018,5 hPa 0,0 l/m 5,8 km/h (2 Bft) O-SO 112 7,5 C 10,4 C
28.08.2012 06:31 10,5 C 82 % 1018,5 hPa 0,0 l/m 4,7 km/h (1 Bft) O-SO 112 7,6 C 10,5 C
28.08.2012 06:36 10,6 C 82 % 1018,5 hPa 0,0 l/m 5,4 km/h (1 Bft) SO 135 7,7 C 10,6 C
28.08.2012 06:41 10,6 C 82 % 1018,3 hPa 0,0 l/m 3,2 km/h (1 Bft) O 90 7,7 C 10,6 C
28.08.2012 06:46 10,7 C 82 % 1018,4 hPa 0,0 l/m 7,2 km/h (2 Bft) O 90 7,8 C 10,7 C
28.08.2012 06:51 10,8 C 82 % 1018,3 hPa 0,0 l/m 2,9 km/h (1 Bft) O-SO 112 7,9 C 10,8 C
28.08.2012 06:56 11,2 C 82 % 1018,4 hPa 0,0 l/m 3,6 km/h (1 Bft) O-SO 112 8,2 C 11,2 C
28.08.2012 07:01 11,7 C 80 % 1018,5 hPa 0,0 l/m 3,2 km/h (1 Bft) O 90 8,4 C 11,7 C
28.08.2012 07:06 12,2 C 79 % 1018,5 hPa 0,0 l/m 2,2 km/h (1 Bft) SO 135 8,7 C 12,2 C
28.08.2012 07:11 12,4 C 78 % 1018,5 hPa 0,0 l/m 2,9 km/h (1 Bft) O-NO 67 8,7 C 12,4 C
28.08.2012 07:16 12,5 C 77 % 1018,5 hPa 0,0 l/m 4,0 km/h (1 Bft) O-SO 112 8,6 C 12,5 C
28.08.2012 07:21 12,6 C 77 % 1018,5 hPa 0,0 l/m 4,0 km/h (1 Bft) O-SO 112 8,7 C 12,6 C
28.08.2012 07:26 12,6 C 76 % 1018,3 hPa 0,0 l/m 2,9 km/h (1 Bft) O 90 8,5 C 12,6 C
28.08.2012 07:31 12,6 C 77 % 1018,4 hPa 0,0 l/m 1,8 km/h (1 Bft) O 90 8,7 C 12,6 C
28.08.2012 07:36 12,6 C 77 % 1018,4 hPa 0,0 l/m 6,1 km/h (2 Bft) O-SO 112 8,7 C 12,6 C
28.08.2012 07:41 12,8 C 77 % 1018,5 hPa 0,0 l/m 0,0 km/h (0 Bft) O-SO 112 8,9 C 12,8 C
28.08.2012 07:46 12,8 C 76 % 1018,5 hPa 0,0 l/m 3,6 km/h (1 Bft) O-SO 112 8,7 C 12,8 C
28.08.2012 07:51 12,9 C 76 % 1018,4 hPa 0,0 l/m 9,0 km/h (2 Bft) O-SO 112 8,8 C 12,9 C
28.08.2012 07:56 13,1 C 76 % 1018,3 hPa 0,0 l/m 2,5 km/h (1 Bft) O-SO 112 9,0 C 13,1 C
28.08.2012 08:01 13,3 C 76 % 1018,3 hPa 0,0 l/m 3,2 km/h (1 Bft) SO 135 9,2 C 13,3 C
28.08.2012 08:06 13,4 C 75 % 1018,3 hPa 0,0 l/m 2,9 km/h (1 Bft) O-SO 112 9,1 C 13,4 C
28.08.2012 08:11 13,6 C 76 % 1018,2 hPa 0,0 l/m 3,6 km/h (1 Bft) O-SO 112 9,4 C 13,6 C
28.08.2012 08:16 13,9 C 75 % 1018,4 hPa 0,0 l/m 4,0 km/h (1 Bft) O-SO 112 9,5 C 13,9 C
28.08.2012 08:21 14,2 C 74 % 1018,5 hPa 0,0 l/m 4,0 km/h (1 Bft) O-SO 112 9,6 C 14,2 C
28.08.2012 08:26 14,5 C 74 % 1018,2 hPa 0,0 l/m 3,6 km/h (1 Bft) SO 135 9,9 C 14,5 C
28.08.2012 08:31 14,8 C 73 % 1018,3 hPa 0,0 l/m 0,0 km/h (0 Bft) SO 135 10,0 C 14,8 C
28.08.2012 08:36 14,9 C 73 % 1018,3 hPa 0,0 l/m 3,6 km/h (1 Bft) SO 135 10,1 C 14,9 C
28.08.2012 08:41 15,3 C 72 % 1018,2 hPa 0,0 l/m 2,2 km/h (1 Bft) SO 135 10,3 C 15,3 C
28.08.2012 08:46 15,6 C 72 % 1018,1 hPa 0,0 l/m 7,9 km/h (2 Bft) S-SO 157 10,6 C 15,6 C
28.08.2012 08:51 15,9 C 71 % 1017,9 hPa 0,0 l/m 8,3 km/h (2 Bft) SO 135 10,6 C 15,9 C
28.08.2012 08:56 16,1 C 70 % 1018,0 hPa 0,0 l/m 3,2 km/h (1 Bft) SO 135 10,6 C 16,1 C
28.08.2012 09:01 16,4 C 70 % 1018,1 hPa 0,0 l/m 3,2 km/h (1 Bft) S-SO 157 10,9 C 16,4 C
28.08.2012 09:06 16,8 C 69 % 1018,0 hPa 0,0 l/m 8,3 km/h (2 Bft) S 180 11,1 C 16,8 C
28.08.2012 09:11 17,2 C 68 % 1018,0 hPa 0,0 l/m 1,4 km/h (1 Bft) S-SO 157 11,2 C 17,2 C
28.08.2012 09:16 17,5 C 67 % 1018,0 hPa 0,0 l/m 11,2 km/h (2 Bft) SO 135 11,3 C 17,5 C
28.08.2012 09:21 17,8 C 66 % 1017,8 hPa 0,0 l/m 6,8 km/h (2 Bft) S-SO 157 11,4 C 17,8 C
28.08.2012 09:26 17,9 C 66 % 1017,8 hPa 0,0 l/m 2,5 km/h (1 Bft) S-SO 157 11,5 C 17,9 C
28.08.2012 09:31 18,3 C 65 % 1017,8 hPa 0,0 l/m 9,0 km/h (2 Bft) SO 135 11,6 C 18,3 C
28.08.2012 09:36 18,5 C 64 % 1017,8 hPa 0,0 l/m 5,0 km/h (1 Bft) S 180 11,6 C 18,5 C
28.08.2012 09:41 18,8 C 63 % 1017,9 hPa 0,0 l/m 4,3 km/h (1 Bft) S-SO 157 11,6 C 18,8 C
28.08.2012 09:46 18,9 C 62 % 1017,9 hPa 0,0 l/m 4,3 km/h (1 Bft) S-SO 157 11,5 C 18,9 C
28.08.2012 09:51 19,1 C 62 % 1017,8 hPa 0,0 l/m 5,4 km/h (1 Bft) S 180 11,6 C 19,1 C
28.08.2012 09:56 19,3 C 62 % 1017,8 hPa 0,0 l/m 3,2 km/h (1 Bft) S-SW 202 11,8 C 19,3 C
28.08.2012 10:01 19,4 C 62 % 1017,7 hPa 0,0 l/m 8,6 km/h (2 Bft) SO 135 11,9 C 19,4 C
28.08.2012 10:06 19,5 C 62 % 1017,8 hPa 0,0 l/m 2,5 km/h (1 Bft) S-SO 157 12,0 C 19,5 C
28.08.2012 10:11 19,8 C 62 % 1017,9 hPa 0,0 l/m 4,7 km/h (1 Bft) S-SW 202 12,3 C 19,8 C
28.08.2012 10:16 19,9 C 61 % 1017,8 hPa 0,0 l/m 4,7 km/h (1 Bft) S-SO 157 12,2 C 19,9 C
28.08.2012 10:21 20,1 C 60 % 1017,9 hPa 0,0 l/m 5,4 km/h (1 Bft) S 180 12,1 C 20,1 C
28.08.2012 10:26 20,1 C 60 % 1017,8 hPa 0,0 l/m 2,5 km/h (1 Bft) S 180 12,1 C 20,1 C
28.08.2012 10:31 20,2 C 59 % 1017,9 hPa 0,0 l/m 6,5 km/h (2 Bft) SW 225 11,9 C 20,2 C
28.08.2012 10:36 20,2 C 59 % 1017,9 hPa 0,0 l/m 6,1 km/h (2 Bft) W-NW 292 11,9 C 20,2 C
28.08.2012 10:41 20,3 C 59 % 1017,8 hPa 0,0 l/m 11,2 km/h (2 Bft) S-SW 202 12,0 C 20,3 C
28.08.2012 10:46 20,5 C 58 % 1017,7 hPa 0,0 l/m 8,6 km/h (2 Bft) SO 135 11,9 C 20,5 C
28.08.2012 10:51 20,8 C 58 % 1017,7 hPa 0,0 l/m 7,6 km/h (2 Bft) S-SW 202 12,2 C 20,8 C
28.08.2012 10:56 20,9 C 58 % 1017,8 hPa 0,0 l/m 7,6 km/h (2 Bft) S-SW 202 12,3 C 20,9 C
28.08.2012 11:01 20,9 C 58 % 1017,9 hPa 0,0 l/m 9,4 km/h (2 Bft) S-SO 157 12,3 C 20,9 C
28.08.2012 11:06 20,9 C 58 % 1017,8 hPa 0,0 l/m 7,2 km/h (2 Bft) S-SO 157 12,3 C 20,9 C
28.08.2012 11:11 20,9 C 57 % 1017,8 hPa 0,0 l/m 6,8 km/h (2 Bft) S-SO 157 12,1 C 20,9 C
28.08.2012 11:16 20,8 C 58 % 1017,6 hPa 0,0 l/m 4,0 km/h (1 Bft) S-SO 157 12,2 C 20,8 C
28.08.2012 11:21 20,7 C 58 % 1017,6 hPa 0,0 l/m 2,5 km/h (1 Bft) S-SW 202 12,1 C 20,7 C
28.08.2012 11:26 20,9 C 59 % 1017,4 hPa 0,0 l/m 9,0 km/h (2 Bft) S 180 12,6 C 20,9 C
28.08.2012 11:31 20,9 C 58 % 1017,4 hPa 0,0 l/m 7,2 km/h (2 Bft) S-SO 157 12,3 C 20,9 C
28.08.2012 11:36 21,1 C 58 % 1017,4 hPa 0,0 l/m 11,9 km/h (2 Bft) S-SO 157 12,5 C 21,1 C
28.08.2012 11:41 21,2 C 58 % 1017,2 hPa 0,0 l/m 6,5 km/h (2 Bft) S 180 12,6 C 21,2 C
28.08.2012 11:46 21,2 C 58 % 1017,2 hPa 0,0 l/m 6,8 km/h (2 Bft) S-SO 157 12,6 C 21,2 C
28.08.2012 11:51 21,3 C 58 % 1017,2 hPa 0,0 l/m 6,8 km/h (2 Bft) S 180 12,7 C 21,3 C
28.08.2012 11:56 21,4 C 58 % 1017,1 hPa 0,0 l/m 12,2 km/h (2 Bft) S 180 12,8 C 21,4 C
28.08.2012 12:01 21,5 C 57 % 1017,0 hPa 0,0 l/m 5,0 km/h (1 Bft) S-SO 157 12,6 C 21,5 C
28.08.2012 12:06 21,6 C 57 % 1016,9 hPa 0,0 l/m 8,3 km/h (2 Bft) S-SO 157 12,7 C 21,6 C
28.08.2012 12:11 21,8 C 57 % 1017,0 hPa 0,0 l/m 9,0 km/h (2 Bft) SO 135 12,9 C 21,8 C
28.08.2012 12:16 22,0 C 56 % 1016,9 hPa 0,0 l/m 2,5 km/h (1 Bft) SW 225 12,8 C 22,0 C
28.08.2012 12:21 22,1 C 56 % 1016,9 hPa 0,0 l/m 8,3 km/h (2 Bft) S-SO 157 12,9 C 22,1 C
28.08.2012 12:26 22,2 C 56 % 1017,1 hPa 0,0 l/m 6,5 km/h (2 Bft) S 180 13,0 C 22,2 C
28.08.2012 12:31 22,1 C 56 % 1017,0 hPa 0,0 l/m 7,6 km/h (2 Bft) S-SO 157 12,9 C 22,1 C
28.08.2012 12:36 21,9 C 56 % 1017,1 hPa 0,0 l/m 3,6 km/h (1 Bft) W-SW 247 12,7 C 21,9 C
28.08.2012 12:41 21,9 C 58 % 1017,1 hPa 0,0 l/m 10,1 km/h (2 Bft) S-SW 202 13,3 C 21,9 C
28.08.2012 12:46 22,0 C 59 % 1016,9 hPa 0,0 l/m 10,1 km/h (2 Bft) S 180 13,6 C 22,0 C
28.08.2012 12:51 22,2 C 58 % 1016,8 hPa 0,0 l/m 12,6 km/h (3 Bft) S-SW 202 13,5 C 22,2 C
28.08.2012 12:56 22,4 C 56 % 1017,1 hPa 0,0 l/m 3,6 km/h (1 Bft) S-SO 157 13,2 C 22,4 C
28.08.2012 13:01 22,6 C 54 % 1017,1 hPa 0,0 l/m 8,3 km/h (2 Bft) S 180 12,8 C 22,6 C
28.08.2012 13:06 22,8 C 53 % 1017,0 hPa 0,0 l/m 2,5 km/h (1 Bft) S 180 12,7 C 22,8 C
28.08.2012 13:11 22,8 C 53 % 1016,9 hPa 0,0 l/m 4,7 km/h (1 Bft) S-SW 202 12,7 C 22,8 C
28.08.2012 13:16 22,9 C 52 % 1016,8 hPa 0,0 l/m 10,4 km/h (2 Bft) S 180 12,5 C 22,9 C
28.08.2012 13:21 23,1 C 51 % 1016,8 hPa 0,0 l/m 3,2 km/h (1 Bft) S-SO 157 12,4 C 23,1 C
28.08.2012 13:26 23,4 C 51 % 1016,8 hPa 0,0 l/m 8,3 km/h (2 Bft) SW 225 12,7 C 23,4 C
28.08.2012 13:31 23,6 C 50 % 1016,8 hPa 0,0 l/m 12,2 km/h (2 Bft) SW 225 12,6 C 23,6 C
28.08.2012 13:36 23,9 C 50 % 1016,7 hPa 0,0 l/m 7,2 km/h (2 Bft) S-SO 157 12,8 C 23,9 C
28.08.2012 13:41 24,1 C 49 % 1016,7 hPa 0,0 l/m 10,8 km/h (2 Bft) SW 225 12,7 C 24,1 C
28.08.2012 13:46 24,3 C 48 % 1016,7 hPa 0,0 l/m 4,7 km/h (1 Bft) SW 225 12,6 C 24,3 C
28.08.2012 13:51 24,2 C 47 % 1016,8 hPa 0,0 l/m 8,3 km/h (2 Bft) S-SW 202 12,2 C 24,2 C
28.08.2012 13:56 24,1 C 46 % 1016,8 hPa 0,0 l/m 4,7 km/h (1 Bft) S 180 11,7 C 24,1 C
28.08.2012 14:01 24,0 C 45 % 1016,8 hPa 0,0 l/m 5,0 km/h (1 Bft) SW 225 11,3 C 24,0 C
28.08.2012 14:06 23,9 C 45 % 1016,7 hPa 0,0 l/m 6,5 km/h (2 Bft) W-NW 292 11,2 C 23,9 C
28.08.2012 14:11 23,6 C 46 % 1016,7 hPa 0,0 l/m 10,1 km/h (2 Bft) S-SO 157 11,3 C 23,6 C
28.08.2012 14:16 23,6 C 48 % 1016,7 hPa 0,0 l/m 4,7 km/h (1 Bft) S-SO 157 11,9 C 23,6 C
28.08.2012 14:21 23,6 C 49 % 1016,8 hPa 0,0 l/m 6,8 km/h (2 Bft) W-SW 247 12,2 C 23,6 C
28.08.2012 14:26 23,6 C 48 % 1016,8 hPa 0,0 l/m 6,8 km/h (2 Bft) SO 135 11,9 C 23,6 C
28.08.2012 14:31 23,8 C 47 % 1016,8 hPa 0,0 l/m 6,8 km/h (2 Bft) W-SW 247 11,8 C 23,8 C
28.08.2012 14:36 24,1 C 45 % 1016,8 hPa 0,0 l/m 10,1 km/h (2 Bft) S-SO 157 11,4 C 24,1 C
28.08.2012 14:41 24,5 C 44 % 1016,8 hPa 0,0 l/m 6,1 km/h (2 Bft) SW 225 11,4 C 24,5 C
28.08.2012 14:46 24,8 C 43 % 1016,7 hPa 0,0 l/m 11,9 km/h (2 Bft) SO 135 11,4 C 24,8 C
28.08.2012 14:51 24,8 C 42 % 1016,7 hPa 0,0 l/m 11,2 km/h (2 Bft) S-SW 202 11,0 C 24,8 C
28.08.2012 14:56 24,9 C 42 % 1016,5 hPa 0,0 l/m 10,1 km/h (2 Bft) S 180 11,1 C 24,9 C
28.08.2012 15:01 24,9 C 41 % 1016,5 hPa 0,0 l/m 7,9 km/h (2 Bft) S 180 10,7 C 24,9 C
28.08.2012 15:06 24,9 C 41 % 1016,5 hPa 0,0 l/m 8,6 km/h (2 Bft) S 180 10,7 C 24,9 C
28.08.2012 15:11 25,1 C 41 % 1016,5 hPa 0,0 l/m 7,6 km/h (2 Bft) S 180 10,9 C 25,1 C
28.08.2012 15:16 25,2 C 41 % 1016,5 hPa 0,0 l/m 11,2 km/h (2 Bft) S-SO 157 11,0 C 25,2 C
28.08.2012 15:21 25,4 C 40 % 1016,7 hPa 0,0 l/m 8,3 km/h (2 Bft) SO 135 10,8 C 25,4 C
28.08.2012 15:26 25,6 C 39 % 1016,8 hPa 0,0 l/m 9,4 km/h (2 Bft) S-SO 157 10,6 C 25,6 C
28.08.2012 15:31 25,4 C 38 % 1016,7 hPa 0,0 l/m 20,5 km/h (4 Bft) S-SO 157 10,0 C 25,4 C
28.08.2012 15:36 25,0 C 38 % 1016,7 hPa 0,0 l/m 10,1 km/h (2 Bft) S-SO 157 9,7 C 25,0 C
28.08.2012 15:41 24,6 C 38 % 1016,7 hPa 0,0 l/m 8,6 km/h (2 Bft) S 180 9,3 C 24,6 C
28.08.2012 15:46 24,5 C 39 % 1016,7 hPa 0,0 l/m 17,3 km/h (3 Bft) S 180 9,6 C 24,5 C
28.08.2012 15:51 24,4 C 39 % 1016,7 hPa 0,0 l/m 7,9 km/h (2 Bft) S-SO 157 9,5 C 24,4 C
28.08.2012 15:56 24,3 C 39 % 1016,8 hPa 0,0 l/m 10,1 km/h (2 Bft) S-SW 202 9,4 C 24,3 C
28.08.2012 16:01 24,4 C 40 % 1016,7 hPa 0,0 l/m 7,6 km/h (2 Bft) S 180 9,9 C 24,4 C
28.08.2012 16:06 24,6 C 41 % 1016,7 hPa 0,0 l/m 5,4 km/h (1 Bft) W-SW 247 10,5 C 24,6 C
28.08.2012 16:11 24,9 C 40 % 1016,9 hPa 0,0 l/m 8,6 km/h (2 Bft) S-SW 202 10,4 C 24,9 C
28.08.2012 16:16 25,0 C 40 % 1016,7 hPa 0,0 l/m 8,6 km/h (2 Bft) SO 135 10,4 C 25,0 C
28.08.2012 16:21 24,9 C 40 % 1016,6 hPa 0,0 l/m 8,6 km/h (2 Bft) W-SW 247 10,4 C 24,9 C
28.08.2012 16:26 24,8 C 41 % 1016,8 hPa 0,0 l/m 7,2 km/h (2 Bft) S-SW 202 10,6 C 24,8 C
28.08.2012 16:31 24,8 C 41 % 1016,8 hPa 0,0 l/m 13,3 km/h (3 Bft) S-SW 202 10,6 C 24,8 C
28.08.2012 16:36 24,6 C 41 % 1016,8 hPa 0,0 l/m 8,3 km/h (2 Bft) SW 225 10,5 C 24,6 C
28.08.2012 16:41 24,3 C 41 % 1016,8 hPa 0,0 l/m 6,1 km/h (2 Bft) S-SW 202 10,2 C 24,3 C
28.08.2012 16:46 24,1 C 42 % 1016,8 hPa 0,0 l/m 5,0 km/h (1 Bft) S-SO 157 10,4 C 24,1 C
28.08.2012 16:51 24,0 C 42 % 1017,0 hPa 0,0 l/m 9,4 km/h (2 Bft) S 180 10,3 C 24,0 C
28.08.2012 16:56 23,9 C 42 % 1016,7 hPa 0,0 l/m 9,7 km/h (2 Bft) S-SO 157 10,2 C 23,9 C
28.08.2012 17:01 23,8 C 42 % 1016,7 hPa 0,0 l/m 8,6 km/h (2 Bft) SO 135 10,1 C 23,8 C
28.08.2012 17:06 23,6 C 43 % 1016,6 hPa 0,0 l/m 1,8 km/h (1 Bft) SO 135 10,3 C 23,6 C
28.08.2012 17:11 23,4 C 43 % 1016,5 hPa 0,0 l/m 5,0 km/h (1 Bft) S-SO 157 10,1 C 23,4 C
28.08.2012 17:16 23,3 C 43 % 1016,4 hPa 0,0 l/m 10,1 km/h (2 Bft) S-SO 157 10,0 C 23,3 C
28.08.2012 17:21 23,2 C 44 % 1016,6 hPa 0,0 l/m 1,4 km/h (1 Bft) SO 135 10,3 C 23,2 C
28.08.2012 17:26 23,4 C 44 % 1016,4 hPa 0,0 l/m 12,2 km/h (2 Bft) W-SW 247 10,4 C 23,4 C
28.08.2012 17:31 23,5 C 44 % 1016,4 hPa 0,0 l/m 11,9 km/h (2 Bft) SO 135 10,5 C 23,5 C
28.08.2012 17:36 23,4 C 45 % 1016,3 hPa 0,0 l/m 5,8 km/h (2 Bft) SO 135 10,8 C 23,4 C
28.08.2012 17:41 23,3 C 45 % 1016,4 hPa 0,0 l/m 6,1 km/h (2 Bft) S-SO 157 10,7 C 23,3 C
28.08.2012 17:46 23,2 C 46 % 1016,3 hPa 0,0 l/m 8,3 km/h (2 Bft) SO 135 10,9 C 23,2 C
28.08.2012 17:51 23,0 C 46 % 1016,3 hPa 0,0 l/m 1,8 km/h (1 Bft) S 180 10,7 C 23,0 C
28.08.2012 17:56 22,9 C 47 % 1016,3 hPa 0,0 l/m 6,8 km/h (2 Bft) SO 135 11,0 C 22,9 C
28.08.2012 18:01 22,8 C 47 % 1016,2 hPa 0,0 l/m 6,1 km/h (2 Bft) S-SO 157 10,9 C 22,8 C
28.08.2012 18:06 22,8 C 47 % 1016,1 hPa 0,0 l/m 2,2 km/h (1 Bft) S-SO 157 10,9 C 22,8 C
28.08.2012 18:11 22,6 C 48 % 1016,2 hPa 0,0 l/m 3,2 km/h (1 Bft) S-SO 157 11,0 C 22,6 C
28.08.2012 18:16 22,4 C 48 % 1016,4 hPa 0,0 l/m 2,2 km/h (1 Bft) SO 135 10,8 C 22,4 C
28.08.2012 18:21 22,4 C 49 % 1016,6 hPa 0,0 l/m 0,0 km/h (0 Bft) O-SO 112 11,2 C 22,4 C
28.08.2012 18:26 22,4 C 49 % 1016,8 hPa 0,0 l/m 5,0 km/h (1 Bft) S-SW 202 11,2 C 22,4 C
28.08.2012 18:31 22,4 C 50 % 1016,9 hPa 0,0 l/m 3,6 km/h (1 Bft) S-SW 202 11,5 C 22,4 C
28.08.2012 18:36 22,4 C 50 % 1016,9 hPa 0,0 l/m 3,2 km/h (1 Bft) S-SO 157 11,5 C 22,4 C
28.08.2012 18:41 22,4 C 50 % 1016,7 hPa 0,0 l/m 5,0 km/h (1 Bft) SO 135 11,5 C 22,4 C
28.08.2012 18:46 22,3 C 50 % 1016,6 hPa 0,0 l/m 4,0 km/h (1 Bft) SO 135 11,4 C 22,3 C
28.08.2012 18:51 22,4 C 50 % 1016,5 hPa 0,0 l/m 7,2 km/h (2 Bft) SO 135 11,5 C 22,4 C
28.08.2012 18:56 22,3 C 50 % 1016,4 hPa 0,0 l/m 4,0 km/h (1 Bft) S-SO 157 11,4 C 22,3 C
28.08.2012 19:01 22,3 C 51 % 1016,2 hPa 0,0 l/m 4,0 km/h (1 Bft) SO 135 11,7 C 22,3 C
28.08.2012 19:06 22,2 C 51 % 1016,5 hPa 0,0 l/m 4,3 km/h (1 Bft) O-SO 112 11,6 C 22,2 C
28.08.2012 19:11 22,1 C 51 % 1016,5 hPa 0,0 l/m 1,1 km/h (1 Bft) O-SO 112 11,5 C 22,1 C
28.08.2012 19:16 21,9 C 52 % 1016,4 hPa 0,0 l/m 3,6 km/h (1 Bft) S-SO 157 11,6 C 21,9 C
28.08.2012 19:21 21,9 C 53 % 1016,5 hPa 0,0 l/m 0,0 km/h (0 Bft) O-SO 112 11,9 C 21,9 C
28.08.2012 19:26 21,8 C 54 % 1016,6 hPa 0,0 l/m 2,2 km/h (1 Bft) O-SO 112 12,1 C 21,8 C
28.08.2012 19:31 21,5 C 55 % 1016,6 hPa 0,0 l/m 2,5 km/h (1 Bft) O-SO 112 12,1 C 21,5 C
28.08.2012 19:36 21,3 C 56 % 1016,5 hPa 0,0 l/m 0,0 km/h (0 Bft) O-SO 112 12,2 C 21,3 C
28.08.2012 19:41 21,1 C 57 % 1016,6 hPa 0,0 l/m 5,8 km/h (2 Bft) O 90 12,2 C 21,1 C
28.08.2012 19:46 20,9 C 58 % 1016,5 hPa 0,0 l/m 2,2 km/h (1 Bft) SO 135 12,3 C 20,9 C
28.08.2012 19:51 20,8 C 59 % 1016,6 hPa 0,0 l/m 0,0 km/h (0 Bft) SO 135 12,5 C 20,8 C
28.08.2012 19:56 20,6 C 59 % 1016,6 hPa 0,0 l/m 0,0 km/h (0 Bft) S-SO 157 12,3 C 20,6 C
28.08.2012 20:01 20,5 C 59 % 1016,5 hPa 0,0 l/m 2,5 km/h (1 Bft) SO 135 12,2 C 20,5 C
28.08.2012 20:06 20,4 C 60 % 1016,7 hPa 0,0 l/m 0,0 km/h (0 Bft) O-SO 112 12,4 C 20,4 C
28.08.2012 20:11 20,2 C 61 % 1016,6 hPa 0,0 l/m 0,0 km/h (0 Bft) SO 135 12,4 C 20,2 C
28.08.2012 20:16 19,9 C 62 % 1016,7 hPa 0,0 l/m 0,0 km/h (0 Bft) SO 135 12,4 C 19,9 C
28.08.2012 20:21 19,9 C 62 % 1016,8 hPa 0,0 l/m 0,0 km/h (0 Bft) SO 135 12,4 C 19,9 C
28.08.2012 20:26 19,8 C 62 % 1016,9 hPa 0,0 l/m 1,1 km/h (1 Bft) SO 135 12,3 C 19,8 C
28.08.2012 20:31 19,6 C 62 % 1017,0 hPa 0,0 l/m 0,0 km/h (0 Bft) SO 135 12,1 C 19,6 C
28.08.2012 20:36 19,6 C 62 % 1016,9 hPa 0,0 l/m 0,0 km/h (0 Bft) SO 135 12,1 C 19,6 C
28.08.2012 20:41 19,4 C 62 % 1017,0 hPa 0,0 l/m 0,0 km/h (0 Bft) SO 135 11,9 C 19,4 C
28.08.2012 20:46 19,3 C 62 % 1017,0 hPa 0,0 l/m 1,4 km/h (1 Bft) SO 135 11,8 C 19,3 C
28.08.2012 20:51 19,3 C 63 % 1017,2 hPa 0,0 l/m 0,0 km/h (0 Bft) SO 135 12,1 C 19,3 C
28.08.2012 20:56 19,2 C 64 % 1017,2 hPa 0,0 l/m 0,0 km/h (0 Bft) SO 135 12,2 C 19,2 C
28.08.2012 21:01 19,2 C 64 % 1017,4 hPa 0,0 l/m 0,0 km/h (0 Bft) SO 135 12,2 C 19,2 C
28.08.2012 21:06 19,2 C 64 % 1017,4 hPa 0,0 l/m 0,0 km/h (0 Bft) SO 135 12,2 C 19,2 C
28.08.2012 21:11 19,2 C 64 % 1017,4 hPa 0,0 l/m 0,0 km/h (0 Bft) SO 135 12,2 C 19,2 C
28.08.2012 21:16 19,2 C 65 % 1017,2 hPa 0,0 l/m 0,0 km/h (0 Bft) O-SO 112 12,5 C 19,2 C
28.08.2012 21:21 19,2 C 64 % 1017,3 hPa 0,0 l/m 0,0 km/h (0 Bft) SO 135 12,2 C 19,2 C
28.08.2012 21:26 19,1 C 65 % 1017,4 hPa 0,0 l/m 0,0 km/h (0 Bft) SO 135 12,4 C 19,1 C
28.08.2012 21:31 19,1 C 65 % 1017,2 hPa 0,0 l/m 0,0 km/h (0 Bft) S-SO 157 12,4 C 19,1 C
28.08.2012 21:36 19,1 C 65 % 1017,3 hPa 0,0 l/m 0,0 km/h (0 Bft) O 90 12,4 C 19,1 C
28.08.2012 21:41 19,0 C 65 % 1017,4 hPa 0,0 l/m 0,0 km/h (0 Bft) S-SO 157 12,3 C 19,0 C
28.08.2012 21:46 18,9 C 66 % 1017,4 hPa 0,0 l/m 0,0 km/h (0 Bft) S-SO 157 12,4 C 18,9 C
28.08.2012 21:51 18,9 C 66 % 1017,3 hPa 0,0 l/m 0,0 km/h (0 Bft) S-SO 157 12,4 C 18,9 C
28.08.2012 21:56 18,9 C 66 % 1017,4 hPa 0,0 l/m 0,0 km/h (0 Bft) O 90 12,4 C 18,9 C
28.08.2012 22:01 18,8 C 66 % 1017,4 hPa 0,0 l/m 0,0 km/h (0 Bft) O 90 12,3 C 18,8 C
28.08.2012 22:06 18,8 C 66 % 1017,4 hPa 0,0 l/m 0,0 km/h (0 Bft) O 90 12,3 C 18,8 C
28.08.2012 22:11 18,7 C 67 % 1017,5 hPa 0,0 l/m 0,0 km/h (0 Bft) O 90 12,4 C 18,7 C
28.08.2012 22:16 18,6 C 66 % 1017,6 hPa 0,0 l/m 0,0 km/h (0 Bft) O 90 12,1 C 18,6 C
28.08.2012 22:21 18,6 C 66 % 1017,6 hPa 0,0 l/m 0,0 km/h (0 Bft) O 90 12,1 C 18,6 C
28.08.2012 22:26 18,5 C 67 % 1017,4 hPa 0,0 l/m 0,0 km/h (0 Bft) O 90 12,3 C 18,5 C
28.08.2012 22:31 18,5 C 67 % 1017,4 hPa 0,0 l/m 0,0 km/h (0 Bft) O 90 12,3 C 18,5 C
28.08.2012 22:36 18,4 C 67 % 1017,4 hPa 0,0 l/m 0,0 km/h (0 Bft) O 90 12,2 C 18,4 C
28.08.2012 22:41 18,4 C 68 % 1017,4 hPa 0,0 l/m 0,0 km/h (0 Bft) O 90 12,4 C 18,4 C
28.08.2012 22:46 18,4 C 68 % 1017,4 hPa 0,0 l/m 0,0 km/h (0 Bft) O 90 12,4 C 18,4 C
28.08.2012 22:51 18,3 C 68 % 1017,5 hPa 0,0 l/m 0,0 km/h (0 Bft) O 90 12,3 C 18,3 C
28.08.2012 22:56 18,3 C 68 % 1017,6 hPa 0,0 l/m 0,0 km/h (0 Bft) O 90 12,3 C 18,3 C
28.08.2012 23:01 18,2 C 68 % 1017,4 hPa 0,0 l/m 0,0 km/h (0 Bft) O 90 12,2 C 18,2 C
28.08.2012 23:06 18,1 C 69 % 1017,5 hPa 0,0 l/m 0,0 km/h (0 Bft) O 90 12,3 C 18,1 C
28.08.2012 23:11 18,1 C 69 % 1017,5 hPa 0,0 l/m 0,0 km/h (0 Bft) O 90 12,3 C 18,1 C
28.08.2012 23:16 17,9 C 69 % 1017,5 hPa 0,0 l/m 0,0 km/h (0 Bft) O 90 12,1 C 17,9 C
28.08.2012 23:21 17,9 C 70 % 1017,6 hPa 0,0 l/m 0,0 km/h (0 Bft) O 90 12,3 C 17,9 C
28.08.2012 23:26 17,8 C 69 % 1017,6 hPa 0,0 l/m 0,0 km/h (0 Bft) O 90 12,0 C 17,8 C
28.08.2012 23:31 17,8 C 70 % 1017,8 hPa 0,0 l/m 0,0 km/h (0 Bft) O 90 12,3 C 17,8 C
28.08.2012 23:36 17,6 C 70 % 1017,6 hPa 0,0 l/m 0,0 km/h (0 Bft) O 90 12,1 C 17,6 C
28.08.2012 23:41 17,5 C 71 % 1017,5 hPa 0,0 l/m 0,0 km/h (0 Bft) O 90 12,2 C 17,5 C
28.08.2012 23:46 17,4 C 71 % 1017,6 hPa 0,0 l/m 0,0 km/h (0 Bft) O 90 12,1 C 17,4 C
28.08.2012 23:51 17,3 C 70 % 1017,7 hPa 0,0 l/m 0,0 km/h (0 Bft) O 90 11,8 C 17,3 C
28.08.2012 23:56 17,2 C 71 % 1017,8 hPa 0,0 l/m 0,0 km/h (0 Bft) O 90 11,9 C 17,2 C
_ Min-Zeit 04:36 15:31 18:06 - 00:01 - - 04:36 04:36
Minimum _ 10,4 C 38 % 1016,1 hPa - 0,0 km/h (0 Bft) - - 7,5 C 10,4 C
_ Max-Zeit 15:26 03:56 00:56 00:01 15:31 - - 12:46 15:26
Maximum _ 25,6 C 82 % 1020,7 hPa 0,0 l/m 20,5 km/h
S-SO (4 Bft)
- - 13,6 C 25,6 C
Durchschnitt _ 17,7 C 64 % 1017,9 hPa #0,0 l/m 4,0 km/h (1 Bft) O-SO - 10,4 C 17,7 C
(c) by David Heller